AirNav   Everest Fuels
 
 1281 users online  

MA52 Sids Airport
Maynard, Massachusetts, USA

GOING TO MAYNARD?


FAA INFORMATION EFFECTIVE 26 JANUARY 2023

Location

FAA Identifier: MA52
Lat/Long: 42-26-17.0100N 071-28-12.4800W
42-26.283500N 071-28.208000W
42.4380583,-71.4701333
(estimated)
Elevation: 220 ft. / 67 m (estimated)
Variation: 16W (1985)
From city: 1 mile NW of MAYNARD, MA
Time zone: UTC -5 (UTC -4 during Daylight Saving Time)
Zip code: 01754

Airport Operations

Airport use: Private use. Permission required prior to landing
Activation date: 04/1964
Control tower: no
ARTCC: BOSTON CENTER
FSS: BRIDGEPORT FLIGHT SERVICE STATION
Attendance: UNATNDD
Wind indicator: yes
Segmented circle: no

Airport Communications

WX ASOS at BED (8 nm E): 124.6 (781-274-9733)
WX ASOS at FIT (15 nm NW): 135.175 (978-343-9121)
WX ASOS at OWD (20 nm SE): 119.95 (781-762-4314)

Nearby radio navigation aids

VOR radial/distance  VOR name  Freq  Var
BOSr299/21.8BOSTON VOR/DME112.7016W
MHTr205/26.2MANCHESTER VOR/DME114.4015W
GDMr118/26.8GARDNER VOR/DME110.6014W
PUTr044/33.4PUTNAM VOR/DME117.4014W

Airport Services

Airframe service: NONE
Powerplant service: NONE

Runway Information

Runway NW/SE

Dimensions: 800 x 50 ft. / 244 x 15 m
Surface: turf
RUNWAY NW  RUNWAY SE
Traffic pattern: leftleft
Obstructions: bldg
ALSO TREE.
none

Airport Ownership and Management from official FAA records

Ownership: Privately-owned
Owner: JACK A.. MASON
7768 US 158
REIDSVILLE, NC 27320-9103
Phone (336) 347-0210
CELL: 508-450-7643
Manager: JACK A.. MASON
7768 US 158
REIDSVILLE, NC 27320-9103
Phone 978-897-9905
CELL: 508-450-7643

Airport Operational Statistics

Aircraft based on the field: 2
Single engine airplanes: 1
Ultralights: 1
    

Additional Remarks

TREES BOTH SIDES, HANGAR ON WEST SIDE.
WIND DIRECTION TWR WEST SIDE 1/2 WAY DOWN.
SUGGEST TO LAND ON RY 20 & DEP RY 02.
FOR CD CTC BOSTON APCH AT 603-594-5554.

Instrument Procedures

There are no published instrument procedures at MA52.

Some nearby airports with instrument procedures:

6B6 - Minute Man Air Field (3 nm NW)
KBED - Laurence G Hanscom Field Airport (8 nm E)
KFIT - Fitchburg Municipal Airport (15 nm NW)
KOWD - Norwood Memorial Airport (20 nm SE)
1B6 - Hopedale Industrial Park Airport (20 nm S)
 
Loc | Ops | Rwys | IFR | FBO | Links
Com | Nav | Svcs | Stats | Notes
Area around MA52 (Sids Airport)
 
Road maps at: MapQuest Bing Google
 
Aerial photo
WARNING: Photo may not be current or correct
Aerial photo of MA52 (Sids Airport)
Photo by Bruce Vinal Aerial Perspectives
Photo taken 09-Sep-2012
looking northeast.

Do you have a better or more recent aerial photo of Sids Airport that you would like to share? If so, please send us your photo.

 
Sectional chart

 
Airport distance calculator
Flying to Sids Airport? Find the distance to fly.

From to MA52

Sunrise and sunset
Times for 04-Feb-2023
 Local
(UTC-5)
 Zulu
(UTC)
Morning civil twilight06:2811:28
Sunrise06:5811:58
Sunset17:0222:02
Evening civil twilight17:3222:32

Current date and time
Zulu (UTC)  04-Feb-2023 16:25:51
Local (UTC-5)  04-Feb-2023 11:25:51
 
METAR
KBED 
8nm E 
041551Z 28012G18KT 10SM CLR M17/M32 A3053 RMK AO2 SLP359 T11671317
KFIT 
14nm NW 
041552Z AUTO 29017G23KT 10SM -SN CLR M18/M33 A3052 RMK AO2 SNE1459B17E20B50 SLP348 P0000 T11781333
KASH 
20nm N 
041556Z 29014G19KT 10SM CLR M18/M33 A3052 RMK AO2 SLP347 T11781333
TAF
KBED 
8nm E 
041120Z 0412/0512 30010G24KT P6SM FEW200 FM041600 28014G22KT P6SM SKC FM042000 26011KT P6SM FEW080 FM042300 23009KT P6SM SCT060
NOTAMs
Click for the latest NOTAMs
NOTAMs are issued by the DoD/FAA and will open in a separate window not controlled by AirNav.

 

 
 

Would you like to see your business listed on this page?

 If your business provides an interesting product or service to pilots, flight crews, aircraft, or users of the Sids Airport, you should consider listing it here.  To start the listing process, click on the button below
 
Add a business
 

Other Pages about Sids Airport

Update a link
 
Copyright © AirNav, LLC. All rights reserved. Privacy Policy  Contact